Time;durP1;ratioP1;P1;durP2;ratioP2;P2;SDS_P1;SDS_P2;PMS_P1;PMS_P2;Temp;Humidity;BMP_temperature;BMP_pressure;BME280_temperature;BME280_humidity;BME280_pressure;Samples;Min_cycle;Max_cycle;Signal;HPM_P1;HPM_P2
2022/03/18 00:01:48;;;;;;;17.73;11.98;;;8.20;99.90;;;;;;4999156;28;20471;-72
2022/03/18 00:04:16;;;;;;;14.27;10.18;;;8.10;99.90;;;;;;5000786;28;20046;-73
2022/03/18 00:06:44;;;;;;;17.13;10.45;;;8.10;99.90;;;;;;4993436;28;20386;-72
2022/03/18 00:09:11;;;;;;;15.20;10.52;;;8.20;99.90;;;;;;4995245;28;20409;-74
2022/03/18 00:11:39;;;;;;;15.20;10.18;;;8.10;99.90;;;;;;5002517;28;20849;-75
2022/03/18 00:14:06;;;;;;;14.80;9.23;;;8.20;99.90;;;;;;5001722;28;20034;-76
2022/03/18 00:16:33;;;;;;;16.00;10.68;;;8.10;99.90;;;;;;5000417;28;20377;-73
2022/03/18 00:19:01;;;;;;;15.10;9.52;;;8.10;99.90;;;;;;5011571;28;20049;-76
2022/03/18 00:21:28;;;;;;;11.70;8.45;;;8.10;99.90;;;;;;5023318;28;20058;-75
2022/03/18 00:23:56;;;;;;;13.25;8.70;;;8.10;99.90;;;;;;5025493;28;20049;-77
2022/03/18 00:26:23;;;;;;;13.15;8.73;;;8.10;99.90;;;;;;5034495;28;20045;-75
2022/03/18 00:28:50;;;;;;;15.60;9.02;;;8.00;99.90;;;;;;5034315;28;20037;-73
2022/03/18 00:31:18;;;;;;;12.57;8.52;;;8.00;99.90;;;;;;5016652;28;20501;-74
2022/03/18 00:33:45;;;;;;;15.05;9.63;;;7.90;99.90;;;;;;5034108;28;20133;-74
2022/03/18 00:36:12;;;;;;;11.35;8.93;;;7.80;99.90;;;;;;5016851;28;20436;-75
2022/03/18 00:38:40;;;;;;;13.65;9.57;;;7.80;99.90;;;;;;5034119;28;20037;-75
2022/03/18 00:41:07;;;;;;;13.40;9.48;;;7.80;99.90;;;;;;5034273;28;20052;-76
2022/03/18 00:43:34;;;;;;;13.52;9.52;;;7.80;99.90;;;;;;5033949;28;20068;-76
2022/03/18 00:46:02;;;;;;;14.77;9.85;;;7.90;99.90;;;;;;5033985;28;20117;-77
2022/03/18 00:54:00;;;;;;;14.05;9.80;;;7.90;99.90;;;;;;5033907;28;20052;-77
2022/03/18 00:56:27;;;;;;;14.07;9.73;;;7.90;99.90;;;;;;5033957;28;20471;-76
2022/03/18 00:58:55;;;;;;;15.02;9.57;;;8.00;99.90;;;;;;5033914;28;20045;-76
2022/03/18 01:01:23;;;;;;;13.65;9.07;;;8.00;99.90;;;;;;5033873;28;20116;-76
2022/03/18 01:03:50;;;;;;;18.00;10.68;;;8.00;99.90;;;;;;5033794;28;20103;-76
2022/03/18 01:06:18;;;;;;;14.20;9.63;;;8.00;99.90;;;;;;5033964;28;20432;-74
2022/03/18 01:08:45;;;;;;;13.00;9.75;;;7.90;99.90;;;;;;5033678;28;20118;-76
2022/03/18 01:11:12;;;;;;;15.32;9.75;;;7.60;99.90;;;;;;5033453;28;20113;-77
2022/03/18 01:13:39;;;;;;;12.43;8.52;;;7.70;99.90;;;;;;5034098;28;20039;-76
2022/03/18 01:16:07;;;;;;;13.38;9.60;;;7.70;99.90;;;;;;5033382;28;20045;-76
2022/03/18 01:18:34;;;;;;;11.52;8.52;;;7.70;99.90;;;;;;5033417;28;20058;-76
2022/03/18 01:21:01;;;;;;;11.90;9.13;;;7.60;99.90;;;;;;5033400;28;20509;-75
2022/03/18 01:23:29;;;;;;;12.07;8.48;;;7.60;99.90;;;;;;5033284;28;20124;-73
2022/03/18 01:25:56;;;;;;;15.88;9.95;;;7.60;99.90;;;;;;5033108;28;20400;-77
2022/03/18 01:28:24;;;;;;;16.65;9.48;;;7.70;99.90;;;;;;5033868;28;20050;-76
2022/03/18 01:30:52;;;;;;;14.98;10.05;;;7.70;99.90;;;;;;5032488;28;20045;-77
2022/03/18 01:33:20;;;;;;;14.48;9.48;;;7.70;99.90;;;;;;5033456;28;20091;-73
2022/03/18 01:35:47;;;;;;;13.68;9.73;;;7.70;99.90;;;;;;5033172;28;20040;-74
2022/03/18 01:38:14;;;;;;;14.00;9.57;;;7.60;99.90;;;;;;5015611;28;20045;-76
2022/03/18 01:40:41;;;;;;;13.80;9.13;;;7.60;99.90;;;;;;5033186;28;20045;-76
2022/03/18 01:43:10;;;;;;;13.05;9.07;;;7.50;99.90;;;;;;5033120;28;20042;-75
2022/03/18 01:45:38;;;;;;;15.02;9.40;;;7.60;99.90;;;;;;5032895;28;20041;-75
2022/03/18 01:48:06;;;;;;;14.45;9.25;;;7.50;99.90;;;;;;5033815;28;20500;-77
2022/03/18 01:50:34;;;;;;;15.90;9.02;;;7.60;99.90;;;;;;5032969;28;20043;-78
2022/03/18 01:53:01;;;;;;;11.10;8.35;;;7.60;99.90;;;;;;5032736;28;20076;-78
2022/03/18 01:55:29;;;;;;;16.23;8.85;;;7.60;99.90;;;;;;5032577;28;20482;-76
2022/03/18 01:57:56;;;;;;;12.48;8.93;;;7.60;99.90;;;;;;5032995;28;20045;-74
2022/03/18 02:00:24;;;;;;;15.68;9.45;;;7.60;99.90;;;;;;5032689;28;20044;-76
2022/03/18 02:02:52;;;;;;;15.50;8.48;;;7.60;99.90;;;;;;5033617;28;20455;-76
2022/03/18 02:05:19;;;;;;;13.55;8.82;;;7.60;99.90;;;;;;5032969;28;20037;-76
2022/03/18 02:07:47;;;;;;;13.10;8.65;;;7.50;99.90;;;;;;5033103;28;20041;-74
2022/03/18 02:10:14;;;;;;;12.13;8.73;;;7.60;99.90;;;;;;5032700;28;20500;-74
2022/03/18 02:12:41;;;;;;;15.27;8.90;;;7.50;99.90;;;;;;5032907;28;20056;-74
2022/03/18 02:15:09;;;;;;;12.18;8.90;;;7.50;99.90;;;;;;5032132;28;20068;-76
2022/03/18 02:17:39;;;;;;;13.27;9.10;;;7.40;99.90;;;;;;5032973;28;20081;-79
2022/03/18 02:20:07;;;;;;;14.60;9.25;;;7.40;99.90;;;;;;5032612;28;20063;-74
2022/03/18 02:22:40;;;;;;;13.70;9.27;;;7.30;99.90;;;;;;5032545;28;20037;-76
2022/03/18 02:25:09;;;;;;;15.00;9.35;;;7.30;99.90;;;;;;5032551;28;20440;-76
2022/03/18 02:27:37;;;;;;;13.10;8.82;;;7.40;99.90;;;;;;5032463;28;20045;-76
2022/03/18 02:30:06;;;;;;;15.45;9.18;;;7.30;99.90;;;;;;5032230;28;20060;-77
2022/03/18 02:32:35;;;;;;;13.30;9.45;;;7.30;99.90;;;;;;5032307;28;20048;-73
2022/03/18 02:35:03;;;;;;;12.52;8.93;;;7.30;99.90;;;;;;5032100;28;20478;-73
2022/03/18 02:37:30;;;;;;;14.30;9.43;;;7.30;99.90;;;;;;5032179;28;20120;-74
2022/03/18 02:39:59;;;;;;;16.20;10.43;;;7.30;99.90;;;;;;5032316;28;20091;-74
2022/03/18 02:42:26;;;;;;;12.82;9.43;;;7.40;99.90;;;;;;5030885;28;20038;-75
2022/03/18 02:44:54;;;;;;;12.30;8.68;;;7.40;99.90;;;;;;5032180;28;20045;-76
2022/03/18 02:47:21;;;;;;;13.45;9.55;;;7.30;99.90;;;;;;5032722;28;20434;-77
2022/03/18 02:49:48;;;;;;;12.75;9.18;;;7.30;99.90;;;;;;5032197;28;20060;-75
2022/03/18 02:52:15;;;;;;;13.07;9.05;;;7.30;99.90;;;;;;5031753;28;20042;-75
2022/03/18 02:54:43;;;;;;;12.65;8.75;;;7.10;99.90;;;;;;5032174;28;20504;-75
2022/03/18 02:57:10;;;;;;;13.48;9.60;;;7.00;99.90;;;;;;5031886;28;20121;-75
2022/03/18 02:59:37;;;;;;;13.20;8.77;;;7.20;99.90;;;;;;5031730;28;20048;-76
2022/03/18 03:02:05;;;;;;;13.98;9.32;;;7.10;99.90;;;;;;5031781;28;20116;-73
2022/03/18 03:04:33;;;;;;;14.13;8.95;;;7.20;99.90;;;;;;5031497;28;20038;-76
2022/03/18 03:09:46;;;;;;;12.30;9.13;;;7.00;99.90;;;;;;5031126;28;20037;-74
2022/03/18 03:12:13;;;;;;;12.65;9.82;;;7.10;99.90;;;;;;5031508;28;20038;-74
2022/03/18 03:14:40;;;;;;;13.07;9.48;;;7.00;99.90;;;;;;5031626;28;20129;-75
2022/03/18 03:17:08;;;;;;;12.25;9.40;;;7.00;99.90;;;;;;5014081;28;20397;-77
2022/03/18 03:19:35;;;;;;;15.85;9.65;;;6.90;99.90;;;;;;5031515;28;20053;-73
2022/03/18 03:22:02;;;;;;;15.85;9.55;;;7.00;99.90;;;;;;5031386;28;20401;-75
2022/03/18 03:24:30;;;;;;;12.13;9.13;;;6.90;99.90;;;;;;5031650;28;20052;-72
2022/03/18 03:26:57;;;;;;;12.43;9.50;;;6.90;99.90;;;;;;5031557;28;20095;-74
2022/03/18 03:29:24;;;;;;;11.88;8.82;;;6.90;99.90;;;;;;5031762;28;20477;-74
2022/03/18 03:31:52;;;;;;;13.00;9.02;;;6.70;99.90;;;;;;5030833;28;20045;-75
2022/03/18 03:34:20;;;;;;;14.20;9.50;;;6.60;99.90;;;;;;5031674;28;20068;-74
2022/03/18 03:36:47;;;;;;;13.40;9.68;;;6.80;99.90;;;;;;5031207;28;20052;-73
2022/03/18 03:39:14;;;;;;;12.73;9.30;;;6.80;99.90;;;;;;5031213;28;20052;-73
2022/03/18 03:41:42;;;;;;;11.43;7.90;;;6.70;99.90;;;;;;5030879;28;20048;-73
2022/03/18 03:44:09;;;;;;;14.45;9.07;;;6.70;99.90;;;;;;5031538;28;20037;-72
2022/03/18 03:46:36;;;;;;;13.00;8.90;;;6.70;99.90;;;;;;5031069;28;20516;-73
2022/03/18 03:49:04;;;;;;;14.88;9.75;;;6.70;99.90;;;;;;5031592;28;20511;-76
2022/03/18 03:51:31;;;;;;;12.85;9.68;;;6.70;99.90;;;;;;5030970;28;20519;-75
2022/03/18 03:53:58;;;;;;;11.95;8.65;;;6.70;99.90;;;;;;5033140;28;20400;-77
2022/03/18 03:56:25;;;;;;;14.00;9.00;;;6.60;99.90;;;;;;5017687;28;20057;-73
2022/03/18 03:58:52;;;;;;;14.90;9.57;;;6.60;99.90;;;;;;5034990;28;20505;-75
2022/03/18 04:01:19;;;;;;;15.10;9.07;;;6.60;99.90;;;;;;5035242;28;20049;-76
2022/03/18 04:03:47;;;;;;;11.48;9.27;;;6.60;99.90;;;;;;5035334;28;20453;-75
2022/03/18 04:06:15;;;;;;;12.57;9.13;;;6.70;99.90;;;;;;5035211;28;20072;-75
2022/03/18 04:08:42;;;;;;;14.88;8.82;;;6.70;99.90;;;;;;5034731;28;20397;-75
2022/03/18 04:11:09;;;;;;;12.27;8.90;;;6.70;99.90;;;;;;5017310;28;20037;-77
2022/03/18 04:13:36;;;;;;;13.27;8.80;;;6.70;99.90;;;;;;5034977;28;20042;-75
2022/03/18 04:16:04;;;;;;;13.02;8.77;;;6.60;99.90;;;;;;5035134;28;20052;-74
2022/03/18 04:18:31;;;;;;;16.33;9.40;;;6.60;99.90;;;;;;5034819;28;20080;-75
2022/03/18 04:20:58;;;;;;;13.25;9.27;;;6.70;99.90;;;;;;5018084;28;20041;-75
2022/03/18 04:23:25;;;;;;;15.10;9.40;;;6.70;99.90;;;;;;5035013;28;20055;-75
2022/03/18 04:25:53;;;;;;;13.75;8.88;;;6.60;99.90;;;;;;5035222;28;20045;-77
2022/03/18 04:28:20;;;;;;;15.95;9.88;;;6.70;99.90;;;;;;5035184;28;20041;-73
2022/03/18 04:30:47;;;;;;;14.10;9.25;;;6.70;99.90;;;;;;5034382;28;20489;-75
2022/03/18 04:33:15;;;;;;;13.77;8.98;;;6.70;99.90;;;;;;5034480;28;20046;-75
2022/03/18 04:35:42;;;;;;;13.13;8.52;;;6.60;99.90;;;;;;5034486;28;20048;-77
2022/03/18 04:38:09;;;;;;;13.88;10.10;;;6.30;99.90;;;;;;5016658;28;20500;-75
2022/03/18 04:40:36;;;;;;;13.13;9.40;;;6.50;99.90;;;;;;5034043;28;20092;-73
2022/03/18 04:43:04;;;;;;;15.02;9.73;;;6.60;99.90;;;;;;5034390;28;20041;-74
2022/03/18 04:45:31;;;;;;;12.63;9.63;;;6.70;99.90;;;;;;5017019;28;20053;-75
2022/03/18 04:47:58;;;;;;;13.35;8.68;;;6.70;99.90;;;;;;5034229;28;20397;-75
2022/03/18 04:50:25;;;;;;;13.32;9.52;;;6.70;99.90;;;;;;5034572;28;20033;-73
2022/03/18 04:52:52;;;;;;;16.88;10.13;;;6.70;99.90;;;;;;5034233;28;20548;-75
2022/03/18 04:55:20;;;;;;;13.63;9.52;;;6.60;99.90;;;;;;5033931;28;20047;-73
2022/03/18 04:57:47;;;;;;;12.32;9.38;;;6.60;99.90;;;;;;5000666;28;20140;-74
2022/03/18 05:00:17;;;;;;;14.93;9.75;;;6.60;99.90;;;;;;5033620;28;20041;-75
2022/03/18 05:02:45;;;;;;;16.42;10.25;;;6.60;99.90;;;;;;5000400;28;20338;-77
2022/03/18 05:05:17;;;;;;;14.45;9.55;;;6.60;99.90;;;;;;5032997;28;20112;-78
2022/03/18 05:07:51;;;;;;;13.07;9.52;;;6.60;99.90;;;;;;5033573;28;20041;-73
2022/03/18 05:10:19;;;;;;;18.10;10.57;;;6.60;99.90;;;;;;5033890;28;20037;-73
2022/03/18 05:12:47;;;;;;;15.43;10.25;;;6.60;99.90;;;;;;5016328;28;20413;-74
2022/03/18 05:15:14;;;;;;;14.32;10.07;;;6.60;99.90;;;;;;5033692;28;20041;-73
2022/03/18 05:17:49;;;;;;;15.68;9.88;;;6.60;99.90;;;;;;5016289;28;20124;-75
2022/03/18 05:20:16;;;;;;;14.98;9.73;;;6.60;99.90;;;;;;5033817;28;20400;-77
2022/03/18 05:22:45;;;;;;;14.23;10.25;;;6.60;99.90;;;;;;5033914;28;20037;-79
2022/03/18 05:25:13;;;;;;;13.38;9.57;;;6.60;99.90;;;;;;5033772;28;20107;-77
2022/03/18 05:27:43;;;;;;;14.98;10.05;;;6.70;99.90;;;;;;5033522;28;20041;-78
2022/03/18 05:30:15;;;;;;;15.30;10.82;;;6.50;99.90;;;;;;5033638;28;20056;-77
2022/03/18 05:32:42;;;;;;;14.93;9.77;;;6.60;99.90;;;;;;5034273;28;20069;-75
2022/03/18 05:35:10;;;;;;;13.63;10.10;;;6.40;99.90;;;;;;5033258;28;20068;-75
2022/03/18 05:37:38;;;;;;;14.52;10.10;;;6.40;99.90;;;;;;5033695;28;20437;-78
2022/03/18 05:40:06;;;;;;;15.88;10.50;;;6.30;99.90;;;;;;5033320;28;20041;-75
2022/03/18 05:42:33;;;;;;;16.15;10.95;;;6.40;99.90;;;;;;5011512;28;20037;-75
2022/03/18 05:45:00;;;;;;;16.98;10.00;;;6.50;99.90;;;;;;5018179;28;20065;-76
2022/03/18 05:47:29;;;;;;;13.52;10.77;;;6.50;99.90;;;;;;5022550;28;20537;-76
2022/03/18 05:50:03;;;;;;;18.73;10.63;;;6.40;99.90;;;;;;5020702;28;20370;-73
2022/03/18 05:52:30;;;;;;;16.02;10.73;;;6.40;99.90;;;;;;5033116;28;20134;-76
2022/03/18 05:54:58;;;;;;;15.68;10.80;;;6.40;99.90;;;;;;5032623;28;20047;-78
2022/03/18 05:57:26;;;;;;;15.23;10.43;;;6.50;99.90;;;;;;5033053;28;20045;-76
2022/03/18 05:59:57;;;;;;;17.55;11.75;;;6.40;99.90;;;;;;5032581;28;20046;-76
2022/03/18 06:02:25;;;;;;;16.58;11.63;;;6.40;99.90;;;;;;5033144;28;20051;-79
2022/03/18 06:04:53;;;;;;;15.85;10.88;;;6.30;99.90;;;;;;5032481;28;20049;-77
2022/03/18 06:07:20;;;;;;;14.88;10.65;;;6.30;99.90;;;;;;5015079;28;20069;-76
2022/03/18 06:12:33;;;;;;;14.55;10.52;;;6.30;99.90;;;;;;5032293;28;20051;-76
2022/03/18 06:15:01;;;;;;;20.52;12.10;;;6.40;99.90;;;;;;5031959;28;20401;-76
2022/03/18 06:17:31;;;;;;;63.55;35.67;;;6.40;99.90;;;;;;5033201;28;20067;-76
2022/03/18 06:19:58;;;;;;;48.72;28.40;;;6.70;99.90;;;;;;5032436;28;20052;-80
2022/03/18 06:22:25;;;;;;;39.88;24.30;;;6.70;99.90;;;;;;5032279;28;20033;-79
2022/03/18 06:24:52;;;;;;;88.38;46.13;;;6.70;99.90;;;;;;5032634;28;20498;-78
2022/03/18 06:27:20;;;;;;;36.08;23.65;;;6.90;99.90;;;;;;5032732;28;20037;-77
2022/03/18 06:29:47;;;;;;;17.88;13.30;;;6.80;99.90;;;;;;5032006;28;20481;-75
2022/03/18 06:32:14;;;;;;;16.38;10.77;;;6.70;99.90;;;;;;5032755;28;20455;-75
2022/03/18 06:34:42;;;;;;;19.80;11.73;;;6.60;99.90;;;;;;5022873;28;20393;-74
2022/03/18 06:37:09;;;;;;;14.02;10.30;;;6.60;99.90;;;;;;5015335;28;20545;-76
2022/03/18 06:39:36;;;;;;;15.48;10.43;;;6.60;99.90;;;;;;5021262;28;20382;-75
2022/03/18 06:42:04;;;;;;;15.30;10.35;;;6.40;99.90;;;;;;5023599;28;20036;-75
2022/03/18 06:44:32;;;;;;;16.02;10.32;;;6.50;99.90;;;;;;5023473;28;20117;-75
2022/03/18 06:46:59;;;;;;;19.08;11.40;;;6.50;99.90;;;;;;5021255;28;20100;-76
2022/03/18 06:49:26;;;;;;;16.15;11.30;;;6.50;99.90;;;;;;5020835;28;20042;-75
2022/03/18 06:51:53;;;;;;;17.23;11.93;;;6.50;99.90;;;;;;5021646;28;20393;-76
2022/03/18 06:54:21;;;;;;;15.70;11.05;;;6.30;99.90;;;;;;5024243;28;20041;-75
2022/03/18 06:56:48;;;;;;;18.90;11.23;;;6.50;99.90;;;;;;5020428;28;20034;-74
2022/03/18 06:59:16;;;;;;;21.27;11.18;;;6.50;99.90;;;;;;5028418;28;20034;-73
2022/03/18 07:01:43;;;;;;;18.17;10.38;;;6.60;99.90;;;;;;5025661;28;20052;-77
2022/03/18 07:04:11;;;;;;;16.10;10.73;;;6.60;99.90;;;;;;5031640;28;20141;-80
2022/03/18 07:06:38;;;;;;;17.67;11.60;;;6.60;99.90;;;;;;5031286;28;20037;-78
2022/03/18 07:09:05;;;;;;;37.22;22.08;;;6.40;99.90;;;;;;5031686;28;20452;-74
2022/03/18 07:11:32;;;;;;;34.55;21.77;;;6.60;99.90;;;;;;5014095;28;20405;-76
2022/03/18 07:14:00;;;;;;;78.38;43.35;;;6.70;99.90;;;;;;5031303;28;20045;-76
2022/03/18 07:19:14;;;;;;;15.07;10.80;;;6.70;99.90;;;;;;5013660;28;20583;-80
2022/03/18 07:21:41;;;;;;;17.70;10.57;;;6.70;99.90;;;;;;5031843;28;20408;-81
2022/03/18 07:24:08;;;;;;;16.95;10.35;;;6.70;99.90;;;;;;5021914;28;20081;-82
2022/03/18 07:26:35;;;;;;;17.30;10.50;;;6.70;99.90;;;;;;5010563;28;20041;-78
2022/03/18 07:29:04;;;;;;;20.13;11.23;;;6.70;99.90;;;;;;5031001;28;20068;-76
2022/03/18 07:31:32;;;;;;;17.00;10.38;;;6.80;99.90;;;;;;5031035;28;20038;-75
2022/03/18 07:33:59;;;;;;;17.42;11.35;;;6.80;99.90;;;;;;5031146;28;20049;-75
2022/03/18 07:36:27;;;;;;;14.75;10.40;;;6.80;99.90;;;;;;5030782;28;20052;-75
2022/03/18 07:38:54;;;;;;;18.73;12.13;;;6.80;99.90;;;;;;5030996;28;20408;-76
2022/03/18 07:41:21;;;;;;;17.77;11.48;;;6.80;99.90;;;;;;5030819;28;20042;-77
2022/03/18 07:43:48;;;;;;;17.88;12.13;;;6.80;99.90;;;;;;5031219;28;20037;-75
2022/03/18 07:46:17;;;;;;;19.27;11.95;;;6.90;99.90;;;;;;5030529;28;20469;-76
2022/03/18 07:48:45;;;;;;;17.25;11.70;;;6.90;99.90;;;;;;5030575;28;20124;-76
2022/03/18 07:51:13;;;;;;;19.98;12.38;;;6.90;99.90;;;;;;5022727;28;20042;-75
2022/03/18 07:53:40;;;;;;;14.65;11.13;;;7.00;99.90;;;;;;5031060;28;20052;-75
2022/03/18 07:56:07;;;;;;;17.02;10.65;;;7.10;99.90;;;;;;5030591;28;20049;-77
2022/03/18 07:58:35;;;;;;;14.95;9.63;;;7.20;99.90;;;;;;4997096;28;20057;-77
2022/03/18 08:01:05;;;;;;;16.90;11.20;;;7.20;99.90;;;;;;5030507;28;20041;-78
2022/03/18 08:03:33;;;;;;;12.65;8.88;;;7.20;99.90;;;;;;5030734;28;20053;-78
2022/03/18 08:06:00;;;;;;;17.27;9.27;;;7.30;99.90;;;;;;5030657;28;20053;-76
2022/03/18 08:08:27;;;;;;;13.20;9.38;;;7.30;99.00;;;;;;5030565;28;20465;-77
2022/03/18 08:10:55;;;;;;;15.18;10.13;;;7.50;98.50;;;;;;5030365;28;20033;-76
2022/03/18 08:13:23;;;;;;;12.10;9.00;;;7.40;99.50;;;;;;5030938;28;20506;-77
2022/03/18 08:15:50;;;;;;;12.98;9.20;;;7.40;98.80;;;;;;5030224;28;20037;-75
2022/03/18 08:18:19;;;;;;;13.27;9.18;;;7.30;98.80;;;;;;5030312;28;20057;-77
2022/03/18 08:20:51;;;;;;;14.75;8.25;;;7.40;97.90;;;;;;5012579;28;20180;-77
2022/03/18 08:23:19;;;;;;;13.45;9.80;;;7.30;97.20;;;;;;5030648;28;20037;-77
2022/03/18 08:25:46;;;;;;;13.23;8.90;;;7.20;97.00;;;;;;5012864;28;20429;-76
2022/03/18 08:28:13;;;;;;;12.10;8.38;;;7.20;96.80;;;;;;5013244;28;20552;-77
2022/03/18 08:30:40;;;;;;;13.38;8.90;;;7.30;96.20;;;;;;5030150;28;20042;-76
2022/03/18 08:33:08;;;;;;;14.10;8.90;;;7.20;96.10;;;;;;5031064;28;20046;-76
2022/03/18 08:35:36;;;;;;;11.63;8.60;;;7.20;95.90;;;;;;5013010;28;20053;-77
2022/03/18 08:38:07;;;;;;;11.73;8.00;;;7.30;96.00;;;;;;5030282;28;20045;-78
2022/03/18 08:40:36;;;;;;;10.18;8.00;;;7.30;95.30;;;;;;5031604;28;20037;-76
2022/03/18 08:43:11;;;;;;;11.27;8.82;;;7.30;94.90;;;;;;5034335;28;20533;-76
2022/03/18 08:45:38;;;;;;;11.50;8.52;;;7.20;95.10;;;;;;5033647;28;20113;-75
2022/03/18 08:48:07;;;;;;;13.25;8.43;;;7.30;95.70;;;;;;5034498;28;20041;-77
2022/03/18 08:50:34;;;;;;;13.32;9.13;;;7.30;95.90;;;;;;5033907;28;20092;-82
2022/03/18 08:53:09;;;;;;;13.95;10.20;;;7.40;96.90;;;;;;5016555;28;20081;-81
2022/03/18 08:55:39;;;;;;;14.20;11.07;;;7.80;96.40;;;;;;5016277;28;20068;-79
2022/03/18 08:58:08;;;;;;;11.27;8.15;;;7.90;95.00;;;;;;5033930;28;20041;-78
2022/03/18 09:00:35;;;;;;;12.38;8.18;;;7.40;95.10;;;;;;4999008;28;20048;-77
2022/03/18 09:03:03;;;;;;;14.18;8.65;;;7.40;95.50;;;;;;5016371;28;20045;-78
2022/03/18 09:05:31;;;;;;;16.77;8.82;;;7.40;95.60;;;;;;5016200;28;20412;-80
2022/03/18 09:07:59;;;;;;;12.68;9.20;;;7.50;95.70;;;;;;5033846;28;20048;-75
2022/03/18 09:10:26;;;;;;;13.85;9.32;;;7.40;96.20;;;;;;5015593;28;20046;-74
2022/03/18 09:12:58;;;;;;;10.77;7.60;;;7.40;96.00;;;;;;5033619;28;20045;-75
2022/03/18 09:15:30;;;;;;;9.45;7.40;;;7.10;96.50;;;;;;5033514;28;20045;-75
2022/03/18 09:17:58;;;;;;;9.00;6.97;;;7.10;96.90;;;;;;5033984;28;20061;-77
2022/03/18 09:20:26;;;;;;;11.40;7.85;;;7.20;95.30;;;;;;4999320;28;20122;-76
2022/03/18 09:22:53;;;;;;;12.05;8.88;;;7.10;95.10;;;;;;5033898;28;20048;-75
2022/03/18 09:25:20;;;;;;;15.63;9.52;;;7.30;95.90;;;;;;5033661;28;20051;-77
2022/03/18 09:27:48;;;;;;;16.00;10.35;;;7.50;97.20;;;;;;5033304;28;20041;-76
2022/03/18 09:30:35;;;;;;;18.17;10.57;;;7.40;98.00;;;;;;5033119;28;20038;-79
2022/03/18 09:33:03;;;;;;;13.82;9.73;;;7.50;99.10;;;;;;5033539;28;20050;-76
2022/03/18 09:35:30;;;;;;;13.30;9.65;;;7.50;98.70;;;;;;5032908;28;21045;-77
2022/03/18 09:37:57;;;;;;;13.18;8.77;;;7.50;98.40;;;;;;5033184;28;20472;-76
2022/03/18 09:40:25;;;;;;;14.15;8.98;;;7.50;98.00;;;;;;5032995;28;20047;-78
2022/03/18 09:43:13;;;;;;;15.68;10.50;;;7.50;97.50;;;;;;5033096;28;20080;-78
2022/03/18 09:45:41;;;;;;;16.05;11.52;;;7.50;98.40;;;;;;5032496;28;20041;-78
2022/03/18 09:48:15;;;;;;;14.60;10.07;;;7.40;98.30;;;;;;5016615;28;20041;-77
2022/03/18 09:50:43;;;;;;;14.35;9.88;;;7.50;98.90;;;;;;5032571;28;20049;-76
2022/03/18 09:53:15;;;;;;;15.07;10.88;;;7.60;98.10;;;;;;5032978;28;20497;-77
2022/03/18 09:55:42;;;;;;;13.40;9.88;;;7.60;97.80;;;;;;5032866;28;20037;-77
2022/03/18 09:58:11;;;;;;;13.80;9.23;;;7.60;97.90;;;;;;5032552;28;20037;-75
2022/03/18 10:00:38;;;;;;;15.25;10.02;;;7.50;98.00;;;;;;5032418;28;20455;-77
2022/03/18 10:03:11;;;;;;;14.50;9.90;;;7.60;98.30;;;;;;5033268;28;20100;-75
2022/03/18 10:06:00;;;;;;;14.27;8.93;;;7.80;97.40;;;;;;5032628;28;20091;-79
2022/03/18 10:08:39;;;;;;;13.77;9.32;;;7.80;97.30;;;;;;5032494;28;20072;-75
2022/03/18 10:11:20;;;;;;;17.40;9.57;;;7.90;97.10;;;;;;5032847;28;20056;-78
2022/03/18 10:13:56;;;;;;;13.90;9.65;;;7.60;97.40;;;;;;5032519;28;20042;-79
2022/03/18 10:16:31;;;;;;;14.75;9.88;;;7.70;97.20;;;;;;5032003;28;20053;-77
2022/03/18 10:18:59;;;;;;;12.55;8.52;;;7.80;97.00;;;;;;5014389;28;20045;-78
2022/03/18 10:21:28;;;;;;;12.52;9.60;;;7.80;96.20;;;;;;5032117;28;20474;-77
2022/03/18 10:24:06;;;;;;;13.35;9.32;;;8.00;95.00;;;;;;5032154;28;20401;-79
2022/03/18 10:26:35;;;;;;;12.38;8.77;;;8.10;94.80;;;;;;5028261;28;20037;-76
2022/03/18 10:29:03;;;;;;;15.38;8.55;;;8.20;93.50;;;;;;5021444;28;20045;-78
2022/03/18 10:31:30;;;;;;;13.18;9.65;;;8.10;94.40;;;;;;5022929;28;20038;-77
2022/03/18 10:37:05;;;;;;;12.02;8.45;;;8.50;93.40;;;;;;5028181;28;20045;-80
2022/03/18 10:39:34;;;;;;;12.73;8.95;;;8.30;93.70;;;;;;5003051;28;20536;-77
2022/03/18 10:42:09;;;;;;;11.93;8.82;;;8.10;94.50;;;;;;5021952;28;20038;-75
2022/03/18 10:44:42;;;;;;;11.27;8.73;;;8.00;95.10;;;;;;5020945;28;20038;-78
2022/03/18 10:47:22;;;;;;;14.18;8.43;;;8.20;94.60;;;;;;5019236;28;20049;-80
2022/03/18 10:49:50;;;;;;;12.30;8.55;;;8.20;94.50;;;;;;5031416;28;20056;-79
2022/03/18 10:52:17;;;;;;;11.95;8.55;;;8.30;94.30;;;;;;5031044;28;20448;-77
2022/03/18 10:54:44;;;;;;;11.90;8.60;;;8.30;94.40;;;;;;5021862;28;20048;-76
2022/03/18 10:57:17;;;;;;;12.43;8.68;;;8.40;94.90;;;;;;5001726;28;20041;-74
2022/03/18 10:59:44;;;;;;;12.82;8.57;;;8.30;94.40;;;;;;5002395;28;20037;-79
2022/03/18 11:02:16;;;;;;;13.20;8.63;;;8.50;94.40;;;;;;5020767;28;20042;-77
2022/03/18 11:04:46;;;;;;;12.65;8.13;;;8.40;93.90;;;;;;4986441;28;20041;-78
2022/03/18 11:07:29;;;;;;;11.05;8.10;;;8.10;92.70;;;;;;5019717;28;20092;-75
2022/03/18 11:12:55;;;;;;;13.30;9.15;;;7.60;94.70;;;;;;5020066;28;20105;-75
2022/03/18 11:15:26;;;;;;;11.40;8.48;;;8.10;94.60;;;;;;5001932;28;20180;-77
2022/03/18 11:17:55;;;;;;;12.50;8.80;;;8.60;93.60;;;;;;5011668;28;20558;-76
2022/03/18 11:20:27;;;;;;;13.93;8.55;;;9.00;93.00;;;;;;4993519;28;20406;-76
2022/03/18 11:22:54;;;;;;;13.13;8.48;;;9.30;91.80;;;;;;5011641;28;20401;-76
2022/03/18 11:25:23;;;;;;;13.85;8.82;;;9.20;90.30;;;;;;5010243;28;20470;-77
2022/03/18 11:27:51;;;;;;;12.95;8.43;;;9.20;91.50;;;;;;5009840;28;20052;-76
2022/03/18 11:30:35;;;;;;;13.07;9.07;;;9.20;90.50;;;;;;5009053;28;20041;-81
2022/03/18 11:33:17;;;;;;;55.95;31.02;;;9.20;90.60;;;;;;4991862;28;20371;-80
2022/03/18 11:35:52;;;;;;;85.13;52.22;;;9.80;91.40;;;;;;4991942;28;20045;-77
2022/03/18 11:38:19;;;;;;;16.10;13.05;;;10.30;90.40;;;;;;4991022;28;20046;-75
2022/03/18 11:41:00;;;;;;;12.68;8.80;;;10.30;86.80;;;;;;5009386;28;20406;-75
2022/03/18 11:43:39;;;;;;;12.68;8.35;;;10.20;86.10;;;;;;4990990;28;20121;-75
2022/03/18 11:46:27;;;;;;;12.77;8.90;;;10.30;84.80;;;;;;4990496;28;20038;-77
2022/03/18 11:49:05;;;;;;;12.50;8.93;;;10.00;83.00;;;;;;5010663;28;20529;-76
2022/03/18 11:51:35;;;;;;;11.52;8.48;;;9.50;84.20;;;;;;5010952;28;20199;-75
2022/03/18 11:54:07;;;;;;;14.73;8.93;;;9.40;86.00;;;;;;5010410;28;20406;-77
2022/03/18 11:56:50;;;;;;;16.48;9.65;;;9.50;86.30;;;;;;5010904;28;20041;-77
2022/03/18 11:59:29;;;;;;;13.25;9.40;;;9.50;86.60;;;;;;5010515;28;20584;-75
2022/03/18 12:02:04;;;;;;;12.93;9.32;;;9.30;87.40;;;;;;4993758;28;20041;-76
2022/03/18 12:04:39;;;;;;;12.35;9.65;;;9.50;88.70;;;;;;4974027;28;20031;-76
2022/03/18 12:07:11;;;;;;;16.38;9.75;;;9.30;87.80;;;;;;4991595;28;20485;-76
2022/03/18 12:09:51;;;;;;;15.38;9.30;;;9.30;87.30;;;;;;4973956;28;20161;-77
2022/03/18 12:12:25;;;;;;;13.48;9.60;;;9.40;88.40;;;;;;4991667;28;20034;-76
2022/03/18 12:14:55;;;;;;;11.40;8.63;;;9.30;88.40;;;;;;4999305;28;20066;-77
2022/03/18 12:17:23;;;;;;;18.25;10.05;;;9.40;88.50;;;;;;5014831;28;20394;-76
2022/03/18 12:19:57;;;;;;;13.43;9.77;;;9.70;87.70;;;;;;5014024;28;20054;-77
2022/03/18 12:22:29;;;;;;;16.27;10.10;;;9.50;86.60;;;;;;5014511;28;20467;-80
2022/03/18 12:24:57;;;;;;;17.05;9.68;;;9.60;87.50;;;;;;4980775;28;20108;-78
2022/03/18 12:27:30;;;;;;;18.08;10.38;;;9.60;87.90;;;;;;4981446;28;20058;-77
2022/03/18 12:30:01;;;;;;;16.13;10.93;;;9.70;86.80;;;;;;4996407;28;20121;-75
2022/03/18 12:32:40;;;;;;;14.93;10.23;;;9.60;86.10;;;;;;4997421;28;20405;-74
2022/03/18 12:35:07;;;;;;;15.13;10.38;;;9.80;85.80;;;;;;5013740;28;20049;-76
2022/03/18 12:37:37;;;;;;;16.75;10.10;;;9.60;86.10;;;;;;5014895;28;20046;-76
2022/03/18 12:40:08;;;;;;;14.63;10.40;;;9.50;86.30;;;;;;5014336;28;20053;-77
2022/03/18 12:42:49;;;;;;;15.18;10.57;;;9.30;87.00;;;;;;5014378;28;20069;-75
2022/03/18 12:45:31;;;;;;;17.10;10.43;;;9.60;85.80;;;;;;5013799;28;20120;-78
2022/03/18 12:48:04;;;;;;;13.98;10.02;;;9.60;86.50;;;;;;4997523;28;20054;-76
2022/03/18 12:50:34;;;;;;;16.42;10.30;;;9.90;84.40;;;;;;5014389;28;20042;-76
2022/03/18 12:53:13;;;;;;;14.50;10.68;;;9.90;84.00;;;;;;5014428;28;20066;-76
2022/03/18 12:55:42;;;;;;;14.75;10.15;;;9.60;85.60;;;;;;5013907;28;20129;-75
2022/03/18 12:58:10;;;;;;;16.40;10.50;;;9.70;85.60;;;;;;4980479;28;20085;-77
2022/03/18 13:00:46;;;;;;;15.93;10.32;;;9.90;84.20;;;;;;4996219;28;20138;-79
2022/03/18 13:03:20;;;;;;;17.75;11.38;;;10.20;82.20;;;;;;5014789;28;20077;-79
2022/03/18 13:05:52;;;;;;;17.05;11.40;;;10.50;80.20;;;;;;4996738;28;20121;-78
2022/03/18 13:08:20;;;;;;;18.10;10.60;;;10.50;80.60;;;;;;5011085;28;20089;-78
2022/03/18 13:10:56;;;;;;;19.92;10.93;;;10.50;80.10;;;;;;5009944;28;20044;-76
2022/03/18 13:13:26;;;;;;;17.25;11.88;;;10.30;80.20;;;;;;5012832;28;20042;-77